createdAt,value
2018-10-17T00:02:02.965Z,6.30
2018-10-17T00:04:37.620Z,6.43
2018-10-17T00:07:12.365Z,6.43
2018-10-17T00:09:46.828Z,6.67
2018-10-17T00:12:21.371Z,6.13
2018-10-17T00:14:55.986Z,5.70
2018-10-17T00:17:30.628Z,6.60
2018-10-17T00:20:05.881Z,6.13
2018-10-17T00:22:40.235Z,6.27
2018-10-17T00:25:14.827Z,6.17
2018-10-17T00:27:49.365Z,5.90
2018-10-17T00:30:24.166Z,5.80
2018-10-17T00:32:58.993Z,6.10
2018-10-17T00:35:34.009Z,5.60
2018-10-17T00:38:08.503Z,5.97
2018-10-17T00:40:43.122Z,6.63
2018-10-17T00:43:31.213Z,6.73
2018-10-17T00:46:06.003Z,6.57
2018-10-17T00:48:40.659Z,6.37
2018-10-17T00:51:15.283Z,5.53
2018-10-17T00:53:50.332Z,5.33
2018-10-17T00:56:24.876Z,5.43
2018-10-17T00:59:07.858Z,5.30
2018-10-17T01:01:42.332Z,5.73
2018-10-17T01:04:16.999Z,5.63
2018-10-17T01:06:51.922Z,5.07
2018-10-17T01:09:26.601Z,4.93
2018-10-17T01:12:01.254Z,5.20
2018-10-17T01:14:35.951Z,5.00
2018-10-17T01:17:10.650Z,4.83
2018-10-17T01:19:45.217Z,5.10
2018-10-17T01:22:19.832Z,5.00
2018-10-17T01:24:54.418Z,5.07
2018-10-17T01:27:29.185Z,4.97
2018-10-17T01:30:03.690Z,4.87
2018-10-17T01:32:38.603Z,4.83
2018-10-17T01:35:13.233Z,4.70
2018-10-17T01:38:06.382Z,5.10
2018-10-17T01:40:40.901Z,4.70
2018-10-17T01:43:15.490Z,5.23
2018-10-17T01:45:50.164Z,5.17
2018-10-17T01:48:24.590Z,5.03
2018-10-17T01:51:00.006Z,5.03
2018-10-17T01:53:34.657Z,4.97
2018-10-17T01:56:09.172Z,4.77
2018-10-17T01:58:43.725Z,5.10
2018-10-17T02:01:18.381Z,4.83
2018-10-17T02:03:52.957Z,4.63
2018-10-17T02:06:27.530Z,4.40
2018-10-17T02:09:02.236Z,4.53
2018-10-17T02:11:37.396Z,4.93
2018-10-17T02:14:11.900Z,5.00
2018-10-17T02:16:46.940Z,4.70
2018-10-17T02:19:21.448Z,4.50
2018-10-17T02:21:56.120Z,4.30
2018-10-17T02:24:30.673Z,4.17
2018-10-17T02:27:05.405Z,3.87
2018-10-17T02:29:40.111Z,4.20
2018-10-17T02:32:14.756Z,4.00
2018-10-17T02:34:54.689Z,4.00
2018-10-17T02:37:29.285Z,3.70
2018-10-17T02:40:04.033Z,3.70
2018-10-17T02:42:46.030Z,4.20
2018-10-17T02:45:20.737Z,3.50
2018-10-17T02:47:55.546Z,4.37
2018-10-17T02:50:30.139Z,4.80
2018-10-17T02:53:04.971Z,4.40
2018-10-17T02:55:39.476Z,4.10
2018-10-17T02:58:14.135Z,4.00
2018-10-17T03:00:48.628Z,4.03
2018-10-17T03:03:23.276Z,3.90
2018-10-17T03:05:58.710Z,3.90
2018-10-17T03:08:33.460Z,4.57
2018-10-17T03:11:13.237Z,4.20
2018-10-17T03:13:47.829Z,4.23
2018-10-17T03:16:23.261Z,4.17
2018-10-17T03:18:58.431Z,4.20
2018-10-17T03:21:33.437Z,4.47
2018-10-17T03:24:08.442Z,4.40
2018-10-17T03:26:43.561Z,4.17
2018-10-17T03:29:18.798Z,4.23
2018-10-17T03:31:53.482Z,4.60
2018-10-17T03:34:28.164Z,4.00
2018-10-17T03:37:21.876Z,4.50
2018-10-17T03:39:56.526Z,4.13
2018-10-17T03:42:31.335Z,4.23
2018-10-17T03:45:07.585Z,4.23
2018-10-17T03:47:53.688Z,4.20
2018-10-17T03:50:28.276Z,4.17
2018-10-17T03:53:04.132Z,4.03
2018-10-17T03:55:39.125Z,4.20
2018-10-17T03:58:14.225Z,4.43
2018-10-17T04:00:49.704Z,4.20
2018-10-17T04:03:24.292Z,4.10
2018-10-17T04:05:59.170Z,4.20
2018-10-17T04:08:34.173Z,4.37
2018-10-17T04:11:08.762Z,4.67
2018-10-17T04:13:43.697Z,4.70
2018-10-17T04:16:18.410Z,4.17
2018-10-17T04:18:53.131Z,4.77
2018-10-17T04:21:27.767Z,4.47
2018-10-17T04:24:03.537Z,4.67
2018-10-17T04:26:37.944Z,4.60
2018-10-17T04:29:12.933Z,4.40
2018-10-17T04:31:48.287Z,4.30
2018-10-17T04:34:22.944Z,4.73
2018-10-17T04:36:58.434Z,4.60
2018-10-17T04:39:33.244Z,4.60
2018-10-17T04:42:08.270Z,4.70
2018-10-17T04:44:42.956Z,4.77
2018-10-17T04:47:19.199Z,4.70
2018-10-17T04:49:54.877Z,4.70
2018-10-17T04:52:29.478Z,4.63
2018-10-17T04:55:04.142Z,4.67
2018-10-17T04:57:38.822Z,4.37
2018-10-17T05:00:13.950Z,4.37
2018-10-17T05:02:48.378Z,4.50
2018-10-17T05:05:23.095Z,4.63
2018-10-17T05:07:57.642Z,4.47
2018-10-17T05:10:32.472Z,4.27
2018-10-17T05:13:08.338Z,4.80
2018-10-17T05:15:42.951Z,4.30
2018-10-17T05:18:17.422Z,5.30
2018-10-17T05:20:52.414Z,4.47
2018-10-17T05:23:26.848Z,4.80
2018-10-17T05:26:01.506Z,4.57
2018-10-17T05:28:36.269Z,4.90
2018-10-17T05:31:11.307Z,4.80
2018-10-17T05:33:45.760Z,5.00
2018-10-17T05:36:20.441Z,4.83
2018-10-17T05:38:55.407Z,5.40
2018-10-17T05:41:29.953Z,5.07
2018-10-17T05:47:12.449Z,4.90
2018-10-17T05:49:46.920Z,4.80
2018-10-17T05:52:21.713Z,5.73
2018-10-17T05:54:56.753Z,5.60
2018-10-17T05:57:31.540Z,4.83
2018-10-17T06:00:07.048Z,4.67
2018-10-17T06:02:41.474Z,4.73
2018-10-17T06:05:16.338Z,5.10
2018-10-17T06:07:50.832Z,5.43
2018-10-17T06:10:25.839Z,5.17
2018-10-17T06:13:01.030Z,5.23
2018-10-17T06:15:35.808Z,4.83
2018-10-17T06:18:10.868Z,5.50
2018-10-17T06:20:45.503Z,5.10
2018-10-17T06:23:28.052Z,5.90
2018-10-17T06:26:14.392Z,5.23
2018-10-17T06:28:49.344Z,5.67
2018-10-17T06:31:24.040Z,5.30
2018-10-17T06:33:59.084Z,5.50
2018-10-17T06:36:33.700Z,5.67
2018-10-17T06:39:10.735Z,6.10
2018-10-17T06:41:45.138Z,6.17
2018-10-17T06:44:19.828Z,5.77
2018-10-17T06:46:54.623Z,5.47
2018-10-17T06:49:29.367Z,6.07
2018-10-17T06:55:02.965Z,5.03
2018-10-17T06:57:38.056Z,5.33
2018-10-17T07:00:12.625Z,5.70
2018-10-17T07:02:48.254Z,5.30
2018-10-17T07:05:22.824Z,5.30
2018-10-17T07:07:57.440Z,5.50
2018-10-17T07:10:32.881Z,5.20
2018-10-17T07:13:29.681Z,5.73
2018-10-17T07:16:04.249Z,5.33
2018-10-17T07:18:39.068Z,4.77
2018-10-17T07:21:13.658Z,5.50
2018-10-17T07:23:48.236Z,4.60
2018-10-17T07:26:22.820Z,5.03
2018-10-17T07:28:57.466Z,5.13
2018-10-17T07:31:32.325Z,5.17
2018-10-17T07:34:06.964Z,5.00
2018-10-17T07:36:42.162Z,4.97
2018-10-17T07:39:16.850Z,5.60
2018-10-17T07:41:51.535Z,6.03
2018-10-17T07:44:26.358Z,5.80
2018-10-17T07:47:01.321Z,5.37
2018-10-17T07:49:36.082Z,5.70
2018-10-17T07:52:11.080Z,6.63
2018-10-17T07:54:45.527Z,6.57
2018-10-17T07:57:20.875Z,5.73
2018-10-17T07:59:55.693Z,6.57
2018-10-17T08:02:30.381Z,6.23
2018-10-17T08:05:04.952Z,6.10
2018-10-17T08:07:39.582Z,6.13
2018-10-17T08:10:14.513Z,6.40
2018-10-17T08:12:49.478Z,6.37
2018-10-17T08:15:26.241Z,6.93
2018-10-17T08:18:00.932Z,6.37
2018-10-17T08:20:35.669Z,6.13
2018-10-17T08:23:10.940Z,6.33
2018-10-17T08:25:45.696Z,6.17
2018-10-17T08:28:20.326Z,5.97
2018-10-17T08:30:55.311Z,6.27
2018-10-17T08:33:29.772Z,6.50
2018-10-17T08:36:04.426Z,5.97
2018-10-17T08:38:39.589Z,5.97
2018-10-17T08:41:14.577Z,6.57
2018-10-17T08:43:49.454Z,5.50
2018-10-17T08:46:26.167Z,6.57
2018-10-17T08:49:01.061Z,5.90
2018-10-17T08:54:36.749Z,6.87
2018-10-17T08:57:11.558Z,6.00
2018-10-17T08:59:46.712Z,6.03
2018-10-17T09:02:21.272Z,5.60
2018-10-17T09:04:56.260Z,6.50
2018-10-17T09:07:37.701Z,6.27
2018-10-17T09:10:12.585Z,6.23
2018-10-17T09:12:47.109Z,6.30
2018-10-17T09:15:21.709Z,5.73
2018-10-17T09:17:56.718Z,5.77
2018-10-17T09:20:31.425Z,5.20
2018-10-17T09:23:06.721Z,5.57
2018-10-17T09:25:41.510Z,5.57
2018-10-17T09:28:16.662Z,6.07
2018-10-17T09:30:51.533Z,5.97
2018-10-17T09:33:26.055Z,6.00
2018-10-17T09:36:00.635Z,6.00
2018-10-17T09:38:35.924Z,5.83
2018-10-17T09:41:10.701Z,6.27
2018-10-17T09:43:45.333Z,6.07
2018-10-17T09:46:19.965Z,5.93
2018-10-17T09:48:54.636Z,5.40
2018-10-17T09:51:29.245Z,6.30
2018-10-17T09:54:03.630Z,5.70
2018-10-17T09:56:38.266Z,6.73
2018-10-17T09:59:12.861Z,6.03
2018-10-17T10:01:51.532Z,6.30
2018-10-17T10:04:29.317Z,6.27
2018-10-17T10:07:03.839Z,6.40
2018-10-17T10:09:38.432Z,6.57
2018-10-17T10:12:13.292Z,6.27
2018-10-17T10:14:47.864Z,6.57
2018-10-17T10:17:22.586Z,6.77
2018-10-17T10:19:57.725Z,5.97
2018-10-17T10:22:32.221Z,5.93
2018-10-17T10:25:06.971Z,5.53
2018-10-17T10:27:41.496Z,6.23
2018-10-17T10:30:16.128Z,6.17
2018-10-17T10:32:51.861Z,6.43
2018-10-17T10:35:26.996Z,6.30
2018-10-17T10:38:01.655Z,5.80
2018-10-17T10:40:36.490Z,6.07
2018-10-17T10:46:09.776Z,6.10
2018-10-17T10:54:42.636Z,6.40
2018-10-17T10:57:17.354Z,7.23
2018-10-17T10:59:52.280Z,6.90
2018-10-17T11:02:27.057Z,7.70
2018-10-17T11:05:01.950Z,7.10
2018-10-17T11:07:36.758Z,7.30
2018-10-17T11:10:11.286Z,6.80
2018-10-17T11:12:45.847Z,7.07
2018-10-17T11:15:20.536Z,7.20
2018-10-17T11:17:55.294Z,7.70
2018-10-17T11:20:29.848Z,7.70
2018-10-17T11:23:04.532Z,7.97
2018-10-17T11:25:39.216Z,7.63
2018-10-17T11:28:14.274Z,8.00
2018-10-17T11:33:53.893Z,7.10
2018-10-17T11:36:28.567Z,7.60
2018-10-17T11:39:03.290Z,7.63
2018-10-17T11:41:38.007Z,7.07
2018-10-17T11:44:12.629Z,7.17
2018-10-17T11:46:47.148Z,7.07
2018-10-17T11:49:21.866Z,8.17
2018-10-17T11:51:57.145Z,7.97
2018-10-17T11:54:31.950Z,6.77
2018-10-17T11:57:06.565Z,6.47
2018-10-17T11:59:41.560Z,7.57
2018-10-17T12:02:16.241Z,6.77
2018-10-17T12:04:51.161Z,7.10
2018-10-17T12:07:25.921Z,6.33
2018-10-17T12:10:00.781Z,7.20
2018-10-17T12:12:35.451Z,6.90
2018-10-17T12:15:12.469Z,6.30
2018-10-17T12:17:46.885Z,6.80
2018-10-17T12:20:21.529Z,6.77
2018-10-17T12:22:56.545Z,8.27
2018-10-17T12:25:31.339Z,7.27
2018-10-17T12:28:06.132Z,8.13
2018-10-17T12:30:40.969Z,7.60
2018-10-17T12:33:15.509Z,7.03
2018-10-17T12:35:50.097Z,7.20
2018-10-17T12:38:24.791Z,7.20
2018-10-17T12:40:59.828Z,6.93
2018-10-17T12:43:34.293Z,6.83
2018-10-17T12:46:08.833Z,6.63
2018-10-17T12:48:43.475Z,6.33
2018-10-17T12:51:18.080Z,7.97
2018-10-17T12:53:52.653Z,6.87
2018-10-17T12:56:27.246Z,6.90
2018-10-17T12:59:01.947Z,6.80
2018-10-17T13:01:36.361Z,6.87
2018-10-17T13:04:11.084Z,7.30
2018-10-17T13:06:45.600Z,7.30
2018-10-17T13:09:20.249Z,7.20
2018-10-17T13:11:55.158Z,6.90
2018-10-17T13:14:30.092Z,6.90
2018-10-17T13:17:04.796Z,6.50
2018-10-17T13:19:39.756Z,6.60
2018-10-17T13:22:14.988Z,7.07
2018-10-17T13:24:49.449Z,6.77
2018-10-17T13:27:24.124Z,6.67
2018-10-17T13:29:58.921Z,7.73
2018-10-17T13:32:33.799Z,7.10
2018-10-17T13:35:08.528Z,7.10
2018-10-17T13:37:42.990Z,6.93
2018-10-17T13:40:17.566Z,7.87
2018-10-17T13:42:52.185Z,7.77
2018-10-17T13:45:26.605Z,8.37
2018-10-17T13:48:01.360Z,7.87
2018-10-17T13:50:36.188Z,8.07
2018-10-17T13:53:10.857Z,7.83
2018-10-17T13:56:03.513Z,8.40
2018-10-17T13:58:38.032Z,8.07
2018-10-17T14:01:12.678Z,7.73
2018-10-17T14:03:47.536Z,7.97
2018-10-17T14:06:22.168Z,8.63
2018-10-17T14:08:57.057Z,8.60
2018-10-17T14:11:31.792Z,8.57
2018-10-17T14:14:06.720Z,7.30
2018-10-17T14:16:41.254Z,7.53
2018-10-17T14:19:15.897Z,6.57
2018-10-17T14:21:50.384Z,7.67
2018-10-17T14:24:25.104Z,6.97
2018-10-17T14:26:59.701Z,7.77
2018-10-17T14:29:34.268Z,7.90
2018-10-17T14:32:09.084Z,7.33
2018-10-17T14:34:43.897Z,7.63
2018-10-17T14:37:18.940Z,8.07
2018-10-17T14:39:53.448Z,8.13
2018-10-17T14:42:28.044Z,9.17
2018-10-17T14:45:02.753Z,8.03
2018-10-17T14:47:37.953Z,9.00
2018-10-17T14:50:12.696Z,8.07
2018-10-17T14:52:47.272Z,8.97
2018-10-17T14:55:21.961Z,8.57
2018-10-17T14:57:56.516Z,8.83
2018-10-17T15:00:31.287Z,9.83
2018-10-17T15:03:05.928Z,9.40
2018-10-17T15:05:40.604Z,9.63
2018-10-17T15:08:15.119Z,10.37
2018-10-17T15:10:50.383Z,9.50
2018-10-17T15:13:24.704Z,10.27
2018-10-17T15:15:59.541Z,11.37
2018-10-17T15:18:34.130Z,11.40
2018-10-17T15:21:08.756Z,11.23
2018-10-17T15:23:43.266Z,11.53
2018-10-17T15:26:18.028Z,11.03
2018-10-17T15:28:52.428Z,11.67
2018-10-17T15:31:27.711Z,12.77
2018-10-17T15:34:02.417Z,11.90
2018-10-17T15:36:37.001Z,13.27
2018-10-17T15:39:12.594Z,13.13
2018-10-17T15:41:47.307Z,13.43
2018-10-17T15:47:33.868Z,12.33
2018-10-17T15:50:08.505Z,11.97
2018-10-17T15:52:53.358Z,11.83
2018-10-17T15:55:38.309Z,11.53
2018-10-17T15:58:13.044Z,11.87
2018-10-17T16:01:00.973Z,12.00
2018-10-17T16:06:57.529Z,12.70
2018-10-17T16:09:38.722Z,13.27
2018-10-17T16:12:15.185Z,12.47
2018-10-17T16:14:49.857Z,12.30
2018-10-17T16:17:24.433Z,13.00
2018-10-17T16:20:01.889Z,12.50
2018-10-17T16:22:36.658Z,12.57
2018-10-17T16:25:11.177Z,13.63
2018-10-17T16:27:45.888Z,12.53
2018-10-17T16:30:21.458Z,12.53
2018-10-17T16:32:56.235Z,12.57
2018-10-17T16:35:30.739Z,12.47
2018-10-17T16:38:05.624Z,13.50
2018-10-17T16:40:40.822Z,13.90
2018-10-17T16:43:15.415Z,12.90
2018-10-17T16:45:49.948Z,14.13
2018-10-17T16:48:31.817Z,13.70
2018-10-17T16:51:06.677Z,14.10
2018-10-17T16:53:41.323Z,14.23
2018-10-17T16:56:16.913Z,13.57
2018-10-17T16:58:51.721Z,13.40
2018-10-17T17:01:26.463Z,13.30
2018-10-17T17:04:01.158Z,13.83
2018-10-17T17:06:35.900Z,14.57
2018-10-17T17:09:11.507Z,15.43
2018-10-17T17:11:45.982Z,14.67
2018-10-17T17:14:20.567Z,15.37
2018-10-17T17:16:55.208Z,14.90
2018-10-17T17:19:30.365Z,14.30
2018-10-17T17:22:05.120Z,14.70
2018-10-17T17:24:39.753Z,14.97
2018-10-17T17:27:15.637Z,15.73
2018-10-17T17:29:50.413Z,17.17
2018-10-17T17:32:24.997Z,15.80
2018-10-17T17:34:59.593Z,16.60
2018-10-17T17:37:34.190Z,16.97
2018-10-17T17:40:10.053Z,16.67
2018-10-17T17:43:09.070Z,23.00
2018-10-17T17:45:44.614Z,20.60
2018-10-17T17:48:31.550Z,20.57
2018-10-17T17:51:07.178Z,20.50
2018-10-17T17:53:41.560Z,20.70
2018-10-17T17:56:16.738Z,20.37
2018-10-17T17:58:51.476Z,19.93
2018-10-17T18:01:26.099Z,20.27
2018-10-17T18:04:00.848Z,20.20
2018-10-17T18:06:35.563Z,19.80
2018-10-17T18:09:11.869Z,19.57
2018-10-17T18:11:46.389Z,19.23
2018-10-17T18:14:20.939Z,18.70
2018-10-17T18:16:55.502Z,19.40
2018-10-17T18:19:33.909Z,20.10
2018-10-17T18:22:08.467Z,19.80
2018-10-17T18:24:43.109Z,19.90
2018-10-17T18:27:17.741Z,20.47
2018-10-17T18:29:52.404Z,21.70
2018-10-17T18:32:27.071Z,19.87
2018-10-17T18:35:01.732Z,21.03
2018-10-17T18:37:36.852Z,21.23
2018-10-17T18:40:12.467Z,21.40
2018-10-17T18:42:47.442Z,21.73
2018-10-17T18:45:22.641Z,22.67
2018-10-17T18:47:57.503Z,23.20
2018-10-17T18:50:33.066Z,22.23
2018-10-17T18:53:08.349Z,22.93
2018-10-17T18:55:43.131Z,27.60
2018-10-17T18:58:17.751Z,26.10
2018-10-17T19:00:52.739Z,28.62
2018-10-17T19:03:27.416Z,30.68
2018-10-17T19:06:02.485Z,32.37
2018-10-17T19:08:42.118Z,33.17
2018-10-17T19:11:16.839Z,35.30
2018-10-17T19:13:51.927Z,35.67
2018-10-17T19:16:39.518Z,36.80
2018-10-17T19:19:15.134Z,38.73
2018-10-17T19:21:49.686Z,37.33
2018-10-17T19:24:24.459Z,38.67
2018-10-17T19:26:59.533Z,39.83
2018-10-17T19:29:34.909Z,40.47
2018-10-17T19:32:09.460Z,42.27
2018-10-17T19:34:44.168Z,41.80
2018-10-17T19:37:18.724Z,44.58
2018-10-17T19:39:53.758Z,43.27
2018-10-17T19:42:28.389Z,44.03
2018-10-17T19:45:02.992Z,42.17
2018-10-17T19:47:37.445Z,44.40
2018-10-17T19:50:11.929Z,43.57
2018-10-17T19:52:47.418Z,46.10
2018-10-17T19:55:22.071Z,44.27
2018-10-17T19:57:56.694Z,46.00
2018-10-17T20:00:31.132Z,44.87
2018-10-17T20:03:06.306Z,43.60
2018-10-17T20:05:41.011Z,46.17
2018-10-17T20:08:15.664Z,46.83
2018-10-17T20:10:51.862Z,46.73
2018-10-17T20:13:26.771Z,46.37
2018-10-17T20:16:01.581Z,47.13
2018-10-17T20:18:36.380Z,48.30
2018-10-17T20:21:10.956Z,46.83
2018-10-17T20:23:45.735Z,48.03
2018-10-17T20:26:20.565Z,50.77
2018-10-17T20:28:55.127Z,50.05
2018-10-17T20:31:29.884Z,50.75
2018-10-17T20:34:04.465Z,48.37
2018-10-17T20:36:39.208Z,48.90
2018-10-17T20:39:15.084Z,47.73
2018-10-17T20:41:49.620Z,48.95
2018-10-17T20:44:24.122Z,49.33
2018-10-17T20:46:59.005Z,49.93
2018-10-17T20:49:33.837Z,47.77
2018-10-17T20:52:08.348Z,49.63
2018-10-17T20:54:43.071Z,48.17
2018-10-17T20:57:17.793Z,49.43
2018-10-17T20:59:52.688Z,49.00
2018-10-17T21:02:27.618Z,49.90
2018-10-17T21:05:02.312Z,48.30
2018-10-17T21:07:36.941Z,49.77
2018-10-17T21:10:11.560Z,47.87
2018-10-17T21:12:46.225Z,49.77
2018-10-17T21:15:20.985Z,48.37
2018-10-17T21:17:55.645Z,45.30
2018-10-17T21:20:30.664Z,46.97
2018-10-17T21:23:05.208Z,46.97
2018-10-17T21:25:40.337Z,46.97
2018-10-17T21:28:14.902Z,45.80
2018-10-17T21:30:50.025Z,46.45
2018-10-17T21:33:25.026Z,45.88
2018-10-17T21:35:59.578Z,45.75
2018-10-17T21:38:34.185Z,46.50
2018-10-17T21:41:09.066Z,46.10
2018-10-17T21:43:44.153Z,45.97
2018-10-17T21:46:18.781Z,45.40
2018-10-17T21:48:53.332Z,47.05
2018-10-17T21:51:27.890Z,46.37
2018-10-17T21:54:02.476Z,47.05
2018-10-17T21:56:37.132Z,47.20
2018-10-17T21:59:11.876Z,49.35
2018-10-17T22:01:46.605Z,46.50
2018-10-17T22:04:21.181Z,48.77
2018-10-17T22:06:55.649Z,48.00
2018-10-17T22:09:30.169Z,48.68
2018-10-17T22:12:04.707Z,47.60
2018-10-17T22:14:39.287Z,49.95
2018-10-17T22:17:13.985Z,48.07
2018-10-17T22:19:49.307Z,50.57
2018-10-17T22:22:23.879Z,47.53
2018-10-17T22:24:58.397Z,49.37
2018-10-17T22:27:33.320Z,49.10
2018-10-17T22:30:08.076Z,48.73
2018-10-17T22:32:42.613Z,51.27
2018-10-17T22:35:17.057Z,50.90
2018-10-17T22:37:52.537Z,50.70
2018-10-17T22:40:27.429Z,51.83
2018-10-17T22:43:02.209Z,51.93
2018-10-17T22:45:36.681Z,51.47
2018-10-17T22:48:11.441Z,53.00
2018-10-17T22:50:45.980Z,52.17
2018-10-17T22:53:20.916Z,53.00
2018-10-17T22:55:55.463Z,54.90
2018-10-17T22:58:30.217Z,54.70
2018-10-17T23:01:05.098Z,54.27
2018-10-17T23:03:39.636Z,54.90
2018-10-17T23:06:14.282Z,55.17
2018-10-17T23:08:49.377Z,54.40
2018-10-17T23:11:23.908Z,55.40
2018-10-17T23:13:58.626Z,55.47
2018-10-17T23:16:33.240Z,56.60
2018-10-17T23:19:08.632Z,54.13
2018-10-17T23:21:43.520Z,56.83
2018-10-17T23:24:18.090Z,55.77
2018-10-17T23:26:53.612Z,57.17
2018-10-17T23:29:28.230Z,55.70
2018-10-17T23:32:03.068Z,58.97
2018-10-17T23:34:37.778Z,62.38
2018-10-17T23:37:13.754Z,62.83
2018-10-17T23:39:59.376Z,60.70
2018-10-17T23:42:34.188Z,63.38
2018-10-17T23:45:08.929Z,62.73
2018-10-17T23:47:43.589Z,62.50
2018-10-17T23:50:18.671Z,64.25
2018-10-17T23:52:53.249Z,61.68
2018-10-17T23:55:27.827Z,61.73
2018-10-17T23:58:02.589Z,60.28
